Time;durP1;ratioP1;P1;durP2;ratioP2;P2;SDS_P1;SDS_P2;PMS_P1;PMS_P2;Temp;Humidity;BMP_temperature;BMP_pressure;BME280_temperature;BME280_humidity;BME280_pressure;Samples;Min_cycle;Max_cycle;Signal;HPM_P1;HPM_P2
2023/02/25 00:02:24;;;;;;;7.10;3.40;;;11.20;56.00;;;;;;2580857;53;22218;-90
2023/02/25 00:04:51;;;;;;;5.40;3.20;;;11.20;56.00;;;;;;2567026;53;20996;-89
2023/02/25 00:07:17;;;;;;;7.72;3.50;;;11.10;55.90;;;;;;2579606;53;20972;-89
2023/02/25 00:09:43;;;;;;;5.60;2.95;;;11.10;55.90;;;;;;2578545;53;21981;-86
2023/02/25 00:12:10;;;;;;;5.47;2.97;;;11.10;55.90;;;;;;2581467;53;20948;-89
2023/02/25 00:14:36;;;;;;;6.43;3.25;;;11.00;55.90;;;;;;2568680;53;21083;-87
2023/02/25 00:17:02;;;;;;;6.68;3.37;;;11.00;55.60;;;;;;2320724;53;20917;-87
2023/02/25 00:19:29;;;;;;;8.48;3.25;;;11.00;55.80;;;;;;2339520;53;22117;-88
2023/02/25 00:21:55;;;;;;;6.60;3.35;;;10.90;55.70;;;;;;2582497;53;20960;-88
2023/02/25 00:24:22;;;;;;;5.70;3.15;;;11.00;55.70;;;;;;2338935;53;20971;-88
2023/02/25 00:26:49;;;;;;;7.87;3.45;;;10.90;55.70;;;;;;2340457;53;20965;-88
2023/02/25 00:29:15;;;;;;;5.30;2.55;;;10.90;55.70;;;;;;2340438;53;20969;-87
2023/02/25 00:31:41;;;;;;;5.18;3.05;;;10.90;55.70;;;;;;2583314;53;21040;-88
2023/02/25 00:34:08;;;;;;;6.35;3.40;;;10.80;55.70;;;;;;2581976;53;21019;-86
2023/02/25 00:36:34;;;;;;;7.68;2.83;;;11.00;55.80;;;;;;2583455;52;21952;-90
2023/02/25 00:39:00;;;;;;;5.90;2.92;;;10.80;55.60;;;;;;2583359;52;20960;-87
2023/02/25 00:41:27;;;;;;;5.72;3.20;;;10.80;55.60;;;;;;2580149;53;20984;-89
2023/02/25 00:43:55;;;;;;;4.85;3.03;;;10.70;55.60;;;;;;2583280;53;22348;-87
2023/02/25 00:46:22;;;;;;;5.53;3.00;;;10.70;55.60;;;;;;2582465;52;21122;-89
2023/02/25 00:48:49;;;;;;;4.80;2.70;;;10.70;55.50;;;;;;2583653;53;22389;-90
2023/02/25 00:51:24;;;;;;;6.05;3.03;;;10.70;55.50;;;;;;2581692;52;21028;-88
2023/02/25 00:53:51;;;;;;;6.37;3.55;;;10.70;55.60;;;;;;2340753;53;20992;-90
2023/02/25 00:56:18;;;;;;;7.25;3.28;;;10.70;55.60;;;;;;2340507;53;21019;-87
2023/02/25 00:58:45;;;;;;;5.15;2.87;;;10.60;55.50;;;;;;2583421;53;21131;-91
2023/02/25 01:01:25;;;;;;;5.68;3.15;;;10.70;56.30;;;;;;2339849;53;20957;-87
2023/02/25 01:03:52;;;;;;;7.15;3.25;;;10.60;55.60;;;;;;2583329;53;21850;-87
2023/02/25 01:06:18;;;;;;;4.90;3.03;;;10.60;55.60;;;;;;2339447;53;20956;-89
2023/02/25 01:08:45;;;;;;;6.70;3.60;;;10.60;55.60;;;;;;2582105;52;20945;-90
2023/02/25 01:11:19;;;;;;;6.87;3.22;;;10.50;55.40;;;;;;2339340;53;22229;-88
2023/02/25 01:13:49;;;;;;;5.72;3.15;;;10.50;55.50;;;;;;2582391;53;20972;-88
2023/02/25 01:16:17;;;;;;;6.28;3.30;;;10.50;55.60;;;;;;2339358;53;20980;-89
2023/02/25 01:18:45;;;;;;;5.32;3.08;;;10.50;55.50;;;;;;2341039;53;20980;-91
2023/02/25 01:21:19;;;;;;;6.07;3.10;;;10.40;55.40;;;;;;2340104;53;20977;-90
2023/02/25 01:23:46;;;;;;;6.10;3.05;;;10.50;55.40;;;;;;2340271;53;21024;-89
2023/02/25 01:26:12;;;;;;;7.00;2.95;;;10.40;55.50;;;;;;2579008;52;21031;-89
2023/02/25 01:28:39;;;;;;;6.82;3.22;;;10.40;55.40;;;;;;2581929;52;20968;-89
2023/02/25 01:31:07;;;;;;;5.28;2.67;;;10.40;55.50;;;;;;2339828;53;22079;-89
2023/02/25 01:33:37;;;;;;;6.12;3.12;;;10.40;55.50;;;;;;2339902;53;20996;-89
2023/02/25 01:36:05;;;;;;;6.15;2.92;;;10.50;56.30;;;;;;2582498;53;22151;-89
2023/02/25 01:38:32;;;;;;;5.50;2.87;;;10.40;55.60;;;;;;2581732;52;21974;-88
2023/02/25 01:40:59;;;;;;;6.55;3.10;;;10.40;55.60;;;;;;2581562;53;21056;-89
2023/02/25 01:43:25;;;;;;;5.68;3.15;;;10.40;55.60;;;;;;2338858;53;20997;-90
2023/02/25 01:45:53;;;;;;;7.62;3.60;;;10.40;55.60;;;;;;2582235;53;22452;-89
2023/02/25 01:48:21;;;;;;;5.55;3.28;;;10.40;55.60;;;;;;2581027;53;20980;-88
2023/02/25 01:50:50;;;;;;;7.03;3.83;;;10.40;55.50;;;;;;2582561;53;21043;-90
2023/02/25 01:53:20;;;;;;;5.62;3.28;;;10.40;55.60;;;;;;2581817;53;22069;-89
2023/02/25 01:55:46;;;;;;;6.07;2.78;;;10.40;55.70;;;;;;2341192;53;20917;-90
2023/02/25 01:58:13;;;;;;;5.87;3.20;;;10.40;55.60;;;;;;2341156;53;21004;-90
2023/02/25 02:00:39;;;;;;;6.45;3.30;;;10.30;55.60;;;;;;2584186;52;20988;-89
2023/02/25 02:03:14;;;;;;;4.75;2.58;;;10.30;55.60;;;;;;2584098;53;21019;-89
2023/02/25 02:05:59;;;;;;;4.53;2.50;;;10.30;55.70;;;;;;2341724;53;21000;-90
2023/02/25 02:08:25;;;;;;;4.22;2.25;;;10.40;55.70;;;;;;2582851;53;20961;-90
2023/02/25 02:10:51;;;;;;;6.03;3.25;;;10.40;55.70;;;;;;2584092;53;20933;-90
2023/02/25 02:13:18;;;;;;;5.72;3.08;;;10.40;55.70;;;;;;2583151;53;20980;-89
2023/02/25 02:16:10;;;;;;;5.62;3.00;;;10.40;55.60;;;;;;2585129;52;21838;-90
2023/02/25 02:18:37;;;;;;;8.55;2.75;;;10.40;55.60;;;;;;2585021;52;21842;-88
2023/02/25 02:23:48;;;;;;;5.15;3.03;;;10.40;55.70;;;;;;2341481;53;20932;-89
2023/02/25 02:26:40;;;;;;;5.05;2.33;;;10.40;55.60;;;;;;2340974;53;20913;-87
2023/02/25 02:31:11;;;;;;;5.37;2.60;;;10.40;55.50;;;;;;2585288;53;21009;-89
2023/02/25 02:36:55;;;;;;;4.53;2.35;;;10.40;55.50;;;;;;2342907;53;21012;-90
2023/02/25 02:40:59;;;;;;;4.03;1.87;;;10.40;55.50;;;;;;2584163;53;20943;-88
2023/02/25 02:43:53;;;;;;;4.20;2.00;;;10.20;55.40;;;;;;2580439;53;20976;-87
2023/02/25 02:46:22;;;;;;;4.87;2.53;;;10.30;55.50;;;;;;2579427;53;20936;-86
2023/02/25 02:49:14;;;;;;;6.00;2.92;;;10.30;55.50;;;;;;2579727;52;20929;-87
2023/02/25 02:51:45;;;;;;;5.45;2.75;;;10.30;55.50;;;;;;2579708;53;22051;-88
2023/02/25 02:54:12;;;;;;;5.43;2.90;;;10.30;55.50;;;;;;2336154;53;21057;-86
2023/02/25 02:56:38;;;;;;;6.18;2.85;;;10.20;55.40;;;;;;2579821;53;20978;-86
2023/02/25 02:59:08;;;;;;;6.43;2.90;;;10.20;55.40;;;;;;2575074;53;20923;-87
2023/02/25 04:04:26;;;;;;;3.47;1.73;;;10.20;55.30;;;;;;2575910;53;20979;-86
2023/02/25 04:06:52;;;;;;;4.50;2.50;;;9.80;56.00;;;;;;2335381;53;20932;-87
2023/02/25 04:09:18;;;;;;;5.15;2.60;;;9.70;56.00;;;;;;2335229;53;21087;-86
2023/02/25 04:11:45;;;;;;;5.37;2.97;;;9.70;56.00;;;;;;2578020;53;21099;-87
2023/02/25 04:14:11;;;;;;;5.47;3.17;;;9.70;56.20;;;;;;2575192;53;21063;-87
2023/02/25 04:16:37;;;;;;;6.18;2.83;;;9.70;56.20;;;;;;2336811;53;21992;-88
2023/02/25 04:19:04;;;;;;;5.43;3.08;;;9.70;56.20;;;;;;2549947;53;20949;-87
2023/02/25 04:21:32;;;;;;;6.40;2.80;;;9.70;56.20;;;;;;2335146;53;20956;-87
2023/02/25 04:23:58;;;;;;;5.30;3.08;;;9.70;56.10;;;;;;2336212;53;21796;-86
2023/02/25 04:26:25;;;;;;;5.72;3.20;;;9.60;56.00;;;;;;2577717;53;20944;-87
2023/02/25 04:28:51;;;;;;;6.57;3.83;;;9.70;56.10;;;;;;2573665;53;22270;-86
2023/02/25 04:31:17;;;;;;;6.37;3.15;;;9.60;56.00;;;;;;2334999;53;22065;-87
2023/02/25 04:33:48;;;;;;;6.97;3.30;;;9.60;55.90;;;;;;2579103;53;21959;-87
2023/02/25 04:38:06;;;;;;;6.90;3.60;;;9.60;55.90;;;;;;2578868;53;21535;-87
2023/02/25 04:40:34;;;;;;;6.05;2.90;;;9.50;55.70;;;;;;2336141;53;21000;-86
2023/02/25 04:43:01;;;;;;;5.78;2.92;;;9.50;55.70;;;;;;2336570;53;20967;-86
2023/02/25 04:45:27;;;;;;;5.62;3.05;;;9.50;55.70;;;;;;2578053;52;21008;-86
2023/02/25 04:47:56;;;;;;;6.62;3.15;;;9.40;55.70;;;;;;2334164;53;20987;-86
2023/02/25 04:50:23;;;;;;;5.37;2.80;;;9.40;55.70;;;;;;2333563;53;20940;-87
2023/02/25 04:52:49;;;;;;;7.35;3.15;;;9.40;55.70;;;;;;2333739;53;21893;-87
2023/02/25 04:55:17;;;;;;;5.55;2.80;;;9.40;55.70;;;;;;2575822;52;21051;-86
2023/02/25 04:57:43;;;;;;;5.87;3.05;;;9.30;55.70;;;;;;2334174;53;21083;-87
2023/02/25 05:00:18;;;;;;;6.93;3.15;;;9.30;55.70;;;;;;2576995;53;21053;-86
2023/02/25 05:02:47;;;;;;;5.65;2.90;;;9.30;55.70;;;;;;2577288;53;21000;-87
2023/02/25 05:05:14;;;;;;;7.32;3.30;;;9.20;55.70;;;;;;2577702;53;20936;-86
2023/02/25 05:07:40;;;;;;;6.30;3.15;;;9.20;55.80;;;;;;2335752;53;21212;-87
2023/02/25 05:10:08;;;;;;;9.70;3.08;;;9.20;55.80;;;;;;2336194;53;20940;-88
2023/02/25 05:12:34;;;;;;;5.05;2.90;;;9.20;56.50;;;;;;2336378;53;21023;-88
2023/02/25 05:15:03;;;;;;;7.00;2.83;;;9.10;55.80;;;;;;2337917;53;22009;-86
2023/02/25 05:17:31;;;;;;;5.90;2.62;;;9.10;55.80;;;;;;2337542;53;21964;-88
2023/02/25 05:19:57;;;;;;;3.97;2.15;;;9.10;55.70;;;;;;2580981;52;20944;-87
2023/02/25 05:22:25;;;;;;;3.80;1.95;;;9.00;55.50;;;;;;2337466;53;21925;-86
2023/02/25 05:24:51;;;;;;;4.93;2.45;;;9.00;55.50;;;;;;2580011;53;21759;-86
2023/02/25 05:27:20;;;;;;;6.28;2.58;;;9.00;55.50;;;;;;2336957;53;20849;-85
2023/02/25 05:29:46;;;;;;;5.50;2.60;;;9.00;55.50;;;;;;2338243;53;20944;-86
2023/02/25 05:32:13;;;;;;;6.65;2.78;;;8.90;55.50;;;;;;2579373;52;20929;-87
2023/02/25 05:34:40;;;;;;;4.97;2.47;;;8.90;55.40;;;;;;2337086;53;21252;-87
2023/02/25 05:37:06;;;;;;;3.10;1.70;;;8.80;55.40;;;;;;2337232;53;20908;-87
2023/02/25 05:39:33;;;;;;;4.43;2.10;;;8.80;55.30;;;;;;2580125;53;21981;-85
2023/02/25 05:41:59;;;;;;;5.03;2.50;;;8.70;55.20;;;;;;2337552;53;20956;-87
2023/02/25 05:44:25;;;;;;;4.20;2.00;;;8.70;55.20;;;;;;2579103;53;20983;-86
2023/02/25 05:46:52;;;;;;;5.82;2.72;;;8.60;55.10;;;;;;2337555;53;21033;-86
2023/02/25 05:49:18;;;;;;;4.45;2.22;;;8.60;55.20;;;;;;2580182;53;20973;-85
2023/02/25 05:51:44;;;;;;;5.60;2.83;;;8.50;55.10;;;;;;2337598;53;20952;-87
2023/02/25 05:54:11;;;;;;;5.97;2.83;;;8.50;55.20;;;;;;2579818;53;20988;-86
2023/02/25 05:56:37;;;;;;;7.05;2.40;;;8.40;55.20;;;;;;2336651;53;21865;-86
2023/02/25 05:59:03;;;;;;;7.95;3.20;;;8.40;55.20;;;;;;2337290;53;21331;-87
2023/02/25 06:01:30;;;;;;;7.43;3.10;;;8.30;55.10;;;;;;2336589;53;21000;-87
2023/02/25 06:03:57;;;;;;;5.07;2.83;;;8.20;55.10;;;;;;2579967;53;21008;-87
2023/02/25 06:06:23;;;;;;;4.95;2.50;;;8.20;55.20;;;;;;2336953;53;20937;-86
2023/02/25 06:08:50;;;;;;;5.75;2.67;;;8.20;55.30;;;;;;2579690;53;20976;-87
2023/02/25 06:11:21;;;;;;;4.72;2.40;;;8.10;55.30;;;;;;2336780;53;20904;-87
2023/02/25 06:13:51;;;;;;;4.65;2.55;;;8.10;55.30;;;;;;2580095;53;21039;-87
2023/02/25 06:16:18;;;;;;;7.22;2.62;;;8.00;55.30;;;;;;2579619;53;21095;-86
2023/02/25 06:18:45;;;;;;;5.60;3.20;;;7.90;55.30;;;;;;2336460;53;21008;-87
2023/02/25 06:21:13;;;;;;;5.28;2.65;;;7.90;55.40;;;;;;2579459;52;20992;-87
2023/02/25 06:23:40;;;;;;;5.50;2.12;;;7.90;55.40;;;;;;2579092;52;21473;-88
2023/02/25 06:26:06;;;;;;;5.80;3.05;;;7.80;55.40;;;;;;2579632;53;20889;-86
2023/02/25 06:28:33;;;;;;;8.48;3.30;;;7.80;55.50;;;;;;2337117;53;20901;-87
2023/02/25 06:30:59;;;;;;;4.53;2.37;;;7.80;55.60;;;;;;2336753;53;21044;-87
2023/02/25 06:33:29;;;;;;;6.20;3.35;;;7.70;55.60;;;;;;2579368;52;20984;-86
2023/02/25 06:35:55;;;;;;;7.15;3.42;;;7.70;55.70;;;;;;2580190;52;21067;-85
2023/02/25 06:38:22;;;;;;;6.12;3.03;;;7.70;55.70;;;;;;2336116;53;21773;-85
2023/02/25 06:40:48;;;;;;;6.25;3.08;;;7.70;55.80;;;;;;2336785;53;20979;-85
2023/02/25 06:43:15;;;;;;;6.80;3.30;;;7.60;55.80;;;;;;2335617;53;20996;-86
2023/02/25 06:45:41;;;;;;;6.70;3.15;;;7.60;56.40;;;;;;2336196;53;20976;-85
2023/02/25 06:48:08;;;;;;;6.30;2.70;;;7.60;55.90;;;;;;2581132;53;22184;-86
2023/02/25 06:50:34;;;;;;;6.35;2.95;;;7.60;56.00;;;;;;2577212;53;21426;-86
2023/02/25 06:53:00;;;;;;;5.25;2.60;;;7.60;56.00;;;;;;2335657;53;20971;-85
2023/02/25 06:55:27;;;;;;;6.28;2.67;;;7.60;56.10;;;;;;2575819;52;21017;-86
2023/02/25 06:57:56;;;;;;;5.80;2.58;;;7.60;56.20;;;;;;2577927;53;20980;-86
2023/02/25 07:00:22;;;;;;;5.62;2.65;;;7.60;56.20;;;;;;2336980;53;20934;-86
2023/02/25 07:02:49;;;;;;;7.43;2.47;;;7.60;56.20;;;;;;2578282;52;21087;-84
2023/02/25 07:05:15;;;;;;;5.50;2.78;;;7.60;56.20;;;;;;2335691;53;21972;-86
2023/02/25 07:07:41;;;;;;;5.10;2.37;;;7.60;56.30;;;;;;2579014;53;21601;-85
2023/02/25 07:10:10;;;;;;;6.60;2.92;;;7.60;56.30;;;;;;2579872;53;20991;-86
2023/02/25 07:12:36;;;;;;;7.45;3.08;;;7.60;56.40;;;;;;2336300;53;20933;-86
2023/02/25 07:15:02;;;;;;;7.05;2.70;;;7.60;56.30;;;;;;2336185;53;20972;-84
2023/02/25 07:17:29;;;;;;;4.85;2.50;;;7.70;56.40;;;;;;2334315;53;20953;-86
2023/02/25 07:19:55;;;;;;;6.60;2.33;;;7.60;56.30;;;;;;2573972;53;20937;-84
2023/02/25 07:22:22;;;;;;;6.35;2.17;;;7.70;56.40;;;;;;2331178;53;21686;-85
2023/02/25 07:24:50;;;;;;;5.65;2.78;;;7.70;56.30;;;;;;2331484;53;21066;-86
2023/02/25 07:27:16;;;;;;;5.80;2.60;;;7.70;56.30;;;;;;2330981;53;21011;-87
2023/02/25 07:29:43;;;;;;;6.60;3.28;;;7.70;56.30;;;;;;2572697;53;22119;-86
2023/02/25 07:32:09;;;;;;;9.45;3.30;;;7.70;56.40;;;;;;2572791;53;21959;-86
2023/02/25 07:34:38;;;;;;;9.23;3.83;;;7.70;56.40;;;;;;2330748;53;20929;-87
2023/02/25 07:37:05;;;;;;;6.87;3.72;;;7.70;56.50;;;;;;2331422;53;20944;-87
2023/02/25 07:39:31;;;;;;;5.35;3.00;;;7.80;56.70;;;;;;2573040;52;20904;-85
2023/02/25 07:41:57;;;;;;;4.90;2.58;;;7.60;56.60;;;;;;2573566;53;20977;-85
2023/02/25 07:44:24;;;;;;;5.80;2.95;;;7.80;56.80;;;;;;2329429;53;20917;-86
2023/02/25 07:46:50;;;;;;;6.25;3.35;;;7.80;56.90;;;;;;2332151;53;20948;-86
2023/02/25 07:49:16;;;;;;;7.43;3.20;;;7.80;56.90;;;;;;2330344;53;22114;-86
2023/02/25 07:51:43;;;;;;;6.18;3.00;;;7.90;57.00;;;;;;2330923;53;20972;-86
2023/02/25 07:54:09;;;;;;;6.57;2.83;;;7.90;57.10;;;;;;2329864;53;21017;-84
2023/02/25 07:56:35;;;;;;;5.95;2.47;;;7.90;57.10;;;;;;2332386;53;21032;-87
2023/02/25 07:59:01;;;;;;;6.40;2.55;;;8.00;57.20;;;;;;2574654;53;21458;-87
2023/02/25 08:01:30;;;;;;;6.43;2.50;;;7.90;57.10;;;;;;2330862;53;20936;-86
2023/02/25 08:03:58;;;;;;;6.45;2.65;;;8.10;57.30;;;;;;2573402;52;21343;-86
2023/02/25 08:06:24;;;;;;;6.70;3.00;;;8.10;57.30;;;;;;2327976;53;20944;-86
2023/02/25 08:08:51;;;;;;;8.05;3.10;;;8.20;57.40;;;;;;2570647;53;20936;-84
2023/02/25 08:11:18;;;;;;;7.03;3.30;;;8.30;57.40;;;;;;2570445;53;21012;-87
2023/02/25 08:13:44;;;;;;;8.60;3.58;;;8.30;57.40;;;;;;2571806;53;21713;-85
2023/02/25 08:16:12;;;;;;;8.93;4.15;;;8.40;57.40;;;;;;2567660;53;20932;-86
2023/02/25 08:18:41;;;;;;;10.85;4.93;;;8.40;57.40;;;;;;2571678;52;21012;-86
2023/02/25 08:21:12;;;;;;;9.90;4.72;;;8.50;57.50;;;;;;2330978;53;20949;-87
2023/02/25 08:23:38;;;;;;;8.68;3.67;;;8.60;57.50;;;;;;2573637;52;20980;-87
2023/02/25 08:26:04;;;;;;;4.93;2.78;;;8.60;57.40;;;;;;2574061;53;20965;-84
2023/02/25 08:28:31;;;;;;;7.87;2.62;;;8.70;57.40;;;;;;2574298;52;21992;-84
2023/02/25 08:31:00;;;;;;;7.20;2.72;;;8.70;57.20;;;;;;2538354;53;21051;-82
2023/02/25 08:33:27;;;;;;;4.62;2.37;;;8.80;57.30;;;;;;2569884;52;20948;-85
2023/02/25 08:35:53;;;;;;;5.45;1.83;;;8.90;57.40;;;;;;2572696;53;20936;-87
2023/02/25 08:38:20;;;;;;;6.35;1.90;;;8.90;57.30;;;;;;2572925;53;20999;-84
2023/02/25 08:40:46;;;;;;;5.25;2.30;;;9.10;57.40;;;;;;2329151;53;20916;-87
2023/02/25 08:43:13;;;;;;;5.85;1.98;;;9.00;57.20;;;;;;2571609;53;20944;-88
2023/02/25 08:45:40;;;;;;;7.90;4.22;;;9.10;57.20;;;;;;2328860;53;20920;-86
2023/02/25 08:48:06;;;;;;;6.53;3.20;;;9.20;57.10;;;;;;2328529;53;20984;-86
2023/02/25 08:50:33;;;;;;;6.28;2.70;;;9.20;57.10;;;;;;2326659;53;20920;-85
2023/02/25 08:52:59;;;;;;;4.55;2.60;;;9.30;57.10;;;;;;2567758;53;21410;-88
2023/02/25 08:55:25;;;;;;;5.12;2.10;;;9.40;57.00;;;;;;2571259;53;20995;-87
2023/02/25 08:57:52;;;;;;;3.78;1.77;;;9.40;56.90;;;;;;2568578;52;20948;-87
2023/02/25 09:00:19;;;;;;;4.72;1.50;;;9.50;56.80;;;;;;2326893;53;21003;-86
2023/02/25 09:02:46;;;;;;;5.03;1.75;;;9.60;56.60;;;;;;2565039;52;21427;-86
2023/02/25 09:05:12;;;;;;;4.25;1.62;;;9.60;56.60;;;;;;2567151;52;20964;-87
2023/02/25 09:07:39;;;;;;;4.47;1.40;;;9.60;56.50;;;;;;2568736;53;21040;-86
2023/02/25 09:10:06;;;;;;;3.25;1.40;;;9.70;56.30;;;;;;2327398;53;22112;-86
2023/02/25 09:12:32;;;;;;;5.28;1.50;;;9.70;56.20;;;;;;2567127;53;20976;-87
2023/02/25 09:14:59;;;;;;;6.20;1.60;;;9.70;56.00;;;;;;2567429;52;20937;-86
2023/02/25 09:17:25;;;;;;;4.62;1.40;;;9.80;55.80;;;;;;2568070;53;20992;-86
2023/02/25 09:19:51;;;;;;;3.10;1.02;;;9.80;55.80;;;;;;2567174;52;21035;-85
2023/02/25 09:22:18;;;;;;;2.95;1.00;;;9.90;55.80;;;;;;2565623;53;22056;-86
2023/02/25 09:24:45;;;;;;;3.45;1.00;;;9.90;55.60;;;;;;2565532;52;20979;-85
2023/02/25 09:27:11;;;;;;;3.80;1.00;;;9.90;55.50;;;;;;2561517;52;21448;-86
2023/02/25 09:29:38;;;;;;;2.40;1.02;;;10.00;54.40;;;;;;2324564;53;21958;-86
2023/02/25 09:32:05;;;;;;;3.75;1.08;;;10.00;54.30;;;;;;2329465;53;21032;-87
2023/02/25 09:34:34;;;;;;;2.00;0.80;;;10.00;54.20;;;;;;2563829;53;20905;-86
2023/02/25 09:37:03;;;;;;;2.55;0.85;;;10.10;53.90;;;;;;2566270;52;20933;-85
2023/02/25 09:39:29;;;;;;;3.65;0.80;;;10.10;54.20;;;;;;2324935;53;20983;-86
2023/02/25 09:42:10;;;;;;;2.33;0.70;;;10.10;53.50;;;;;;2566645;53;21406;-85
2023/02/25 09:44:40;;;;;;;2.75;0.80;;;10.10;53.30;;;;;;2533319;53;21001;-85
2023/02/25 09:47:31;;;;;;;3.42;0.80;;;10.10;53.20;;;;;;2567064;52;20972;-85
2023/02/25 09:53:35;;;;;;;3.58;0.90;;;10.20;52.80;;;;;;2567259;53;20938;-84
2023/02/25 09:56:04;;;;;;;3.00;0.77;;;10.20;52.90;;;;;;2564861;53;21099;-84
2023/02/25 09:59:03;;;;;;;2.97;0.98;;;10.20;52.90;;;;;;2324469;53;22165;-85
2023/02/25 10:01:37;;;;;;;2.12;0.60;;;10.20;51.90;;;;;;2325776;53;20947;-83
2023/02/25 10:04:08;;;;;;;2.42;0.85;;;10.20;52.30;;;;;;2563771;52;21054;-84
2023/02/25 10:06:42;;;;;;;2.85;0.70;;;10.20;52.20;;;;;;2569344;53;21051;-84
2023/02/25 10:10:50;;;;;;;2.22;0.70;;;10.20;52.10;;;;;;2569076;52;21036;-87
2023/02/25 10:17:02;;;;;;;1.80;0.60;;;10.20;51.50;;;;;;2327119;53;20944;-88
2023/02/25 10:21:19;;;;;;;2.00;0.50;;;10.20;51.70;;;;;;2570094;53;20956;-86
2023/02/25 10:24:00;;;;;;;2.00;0.55;;;10.20;51.30;;;;;;2566490;52;20941;-86
2023/02/25 10:26:32;;;;;;;3.60;0.70;;;10.20;51.60;;;;;;2328080;53;20983;-86
2023/02/25 10:29:04;;;;;;;2.92;1.00;;;10.20;51.50;;;;;;2573238;52;20949;-85
2023/02/25 10:31:31;;;;;;;1.77;0.60;;;10.20;51.60;;;;;;2574013;52;20929;-85
2023/02/25 10:34:11;;;;;;;2.55;0.90;;;10.20;51.50;;;;;;2573334;53;20936;-86
2023/02/25 10:36:40;;;;;;;2.53;0.65;;;10.20;51.50;;;;;;2332653;53;20976;-86
2023/02/25 10:39:08;;;;;;;2.62;0.80;;;10.30;51.50;;;;;;2572867;52;20954;-86
2023/02/25 10:41:34;;;;;;;4.28;1.05;;;10.20;51.20;;;;;;2572180;52;21993;-86
2023/02/25 10:44:00;;;;;;;4.28;0.80;;;10.20;51.00;;;;;;2331748;53;20967;-85
2023/02/25 10:46:34;;;;;;;2.22;0.88;;;10.10;50.90;;;;;;2573327;52;20956;-86
2023/02/25 10:49:11;;;;;;;4.20;0.80;;;10.20;51.10;;;;;;2332612;53;21158;-86
2023/02/25 10:52:02;;;;;;;2.28;0.70;;;10.30;51.20;;;;;;2574790;52;20945;-86
2023/02/25 10:54:43;;;;;;;3.15;0.73;;;10.30;50.70;;;;;;2574305;53;20944;-87
2023/02/25 10:57:13;;;;;;;2.78;0.80;;;10.30;50.80;;;;;;2331997;53;22070;-84
2023/02/25 10:59:41;;;;;;;2.85;1.00;;;10.30;50.70;;;;;;2572168;52;21891;-88
2023/02/25 11:02:24;;;;;;;2.85;0.77;;;10.30;50.60;;;;;;2571633;52;20953;-86
2023/02/25 11:04:51;;;;;;;1.92;0.77;;;10.30;50.30;;;;;;2331392;53;20916;-86
2023/02/25 11:11:05;;;;;;;5.05;1.20;;;10.30;50.70;;;;;;2573346;53;21100;-86
2023/02/25 11:13:34;;;;;;;1.83;0.52;;;10.30;50.40;;;;;;2331870;53;20901;-86
2023/02/25 11:16:04;;;;;;;1.67;0.62;;;10.30;50.70;;;;;;2333427;53;20932;-86
2023/02/25 11:18:31;;;;;;;2.15;0.82;;;10.30;50.40;;;;;;2572520;53;20959;-86
2023/02/25 11:21:12;;;;;;;3.22;0.73;;;10.30;50.40;;;;;;2572497;53;22066;-84
2023/02/25 11:23:45;;;;;;;2.25;0.75;;;10.20;50.10;;;;;;2332621;53;20892;-86
2023/02/25 11:26:55;;;;;;;3.45;0.90;;;10.20;50.20;;;;;;2573594;52;20988;-86
2023/02/25 11:29:33;;;;;;;4.62;1.25;;;10.20;49.90;;;;;;2331791;53;20920;-84
2023/02/25 11:32:16;;;;;;;2.92;1.10;;;10.30;50.60;;;;;;2574565;52;20900;-86
2023/02/25 11:34:50;;;;;;;4.15;1.20;;;10.20;50.20;;;;;;2573226;52;20904;-87
2023/02/25 11:39:54;;;;;;;3.33;0.75;;;10.20;50.20;;;;;;2573076;53;20941;-86
2023/02/25 11:42:23;;;;;;;3.22;0.68;;;10.20;49.90;;;;;;2332173;53;20965;-85
2023/02/25 11:44:49;;;;;;;4.30;0.95;;;10.20;50.30;;;;;;2331417;53;20983;-86
2023/02/25 11:47:33;;;;;;;1.58;0.68;;;10.00;49.80;;;;;;2572495;53;20944;-84
2023/02/25 11:50:14;;;;;;;3.65;1.00;;;10.20;50.10;;;;;;2572458;53;20913;-88
2023/02/25 11:52:46;;;;;;;2.97;1.00;;;10.20;50.10;;;;;;2572509;52;21896;-84
2023/02/25 11:55:42;;;;;;;2.95;1.10;;;10.20;50.10;;;;;;2572793;52;20976;-85
2023/02/25 11:58:47;;;;;;;2.67;0.80;;;10.20;49.90;;;;;;2573185;53;21425;-86
2023/02/25 12:01:57;;;;;;;4.32;0.95;;;10.20;50.20;;;;;;2329427;53;20940;-87
2023/02/25 12:04:51;;;;;;;3.47;1.10;;;10.20;49.50;;;;;;2572523;52;20905;-86
2023/02/25 12:08:13;;;;;;;2.87;0.80;;;10.20;49.40;;;;;;2572797;53;22070;-85
2023/02/25 12:22:33;;;;;;;5.07;1.00;;;10.20;49.20;;;;;;2573127;52;20960;-85
2023/02/25 12:35:19;;;;;;;2.30;0.90;;;10.20;49.80;;;;;;2573884;52;20948;-86
2023/02/25 12:46:07;;;;;;;2.35;0.70;;;10.20;49.90;;;;;;2574920;52;21980;-85
2023/02/25 12:49:12;;;;;;;2.33;0.70;;;10.20;50.00;;;;;;2571825;52;21052;-87
2023/02/25 12:55:29;;;;;;;2.08;0.70;;;10.30;49.60;;;;;;2570831;52;21067;-84
2023/02/25 12:59:36;;;;;;;2.47;0.70;;;10.30;49.90;;;;;;2330365;53;21074;-85
2023/02/25 13:04:48;;;;;;;1.70;0.60;;;10.30;49.90;;;;;;2330782;53;20956;-84
2023/02/25 13:11:04;;;;;;;1.95;0.68;;;10.10;49.40;;;;;;2574169;52;20928;-86
2023/02/25 13:17:21;;;;;;;2.05;0.65;;;10.40;49.90;;;;;;2576778;52;20932;-86
2023/02/25 13:19:53;;;;;;;;;;;10.40;49.80;;;;;;2581222;53;20932;-87
2023/02/25 13:22:45;;;;;;;3.20;1.05;;;10.50;50.10;;;;;;2578286;52;20071;-86
2023/02/25 13:25:43;;;;;;;3.87;1.00;;;10.50;49.90;;;;;;2578255;53;20937;-85
2023/02/25 13:30:01;;;;;;;2.30;0.90;;;10.50;49.60;;;;;;2335795;53;20969;-86
2023/02/25 13:33:10;;;;;;;3.10;0.85;;;10.60;49.70;;;;;;2576973;52;20916;-87
2023/02/25 13:38:58;;;;;;;1.83;0.60;;;10.60;49.50;;;;;;2578437;53;21795;-87
2023/02/25 13:42:29;;;;;;;1.37;0.40;;;10.70;49.70;;;;;;2576263;53;21020;-86
2023/02/25 13:54:42;;;;;;;2.15;0.60;;;10.70;49.70;;;;;;2333798;53;20947;-85
2023/02/25 14:04:04;;;;;;;1.80;0.60;;;10.80;49.90;;;;;;2332351;53;20972;-86
2023/02/25 14:06:53;;;;;;;2.17;0.68;;;10.80;49.60;;;;;;2574175;53;21562;-85
2023/02/25 14:14:00;;;;;;;2.60;0.65;;;10.90;49.70;;;;;;2331611;53;20944;-85
2023/02/25 14:19:16;;;;;;;1.33;0.57;;;10.90;49.20;;;;;;2333685;53;21066;-87
2023/02/25 14:22:00;;;;;;;2.47;0.80;;;10.90;49.20;;;;;;2574293;52;21107;-85
2023/02/25 14:26:22;;;;;;;2.55;0.95;;;10.90;49.10;;;;;;2574418;53;22254;-85
2023/02/25 14:29:05;;;;;;;3.10;0.90;;;10.90;48.90;;;;;;2573408;52;20932;-87
2023/02/25 14:32:16;;;;;;;3.40;0.93;;;10.90;49.20;;;;;;2331953;53;20920;-85
2023/02/25 14:38:06;;;;;;;5.57;1.10;;;10.80;48.70;;;;;;2331590;53;21007;-85
2023/02/25 14:44:05;;;;;;;2.50;0.65;;;10.80;48.80;;;;;;2574430;53;20940;-85
2023/02/25 14:50:14;;;;;;;1.58;0.50;;;10.90;49.00;;;;;;2574664;52;22123;-86
2023/02/25 14:53:39;;;;;;;3.00;1.10;;;10.80;49.10;;;;;;2573145;52;21783;-85
2023/02/25 14:56:41;;;;;;;2.70;0.90;;;10.80;48.60;;;;;;2331393;53;20906;-87
2023/02/25 14:59:39;;;;;;;2.70;1.00;;;10.80;49.00;;;;;;2332413;53;22107;-86
2023/02/25 15:02:27;;;;;;;2.58;0.73;;;10.80;48.80;;;;;;2572539;53;20920;-85
2023/02/25 15:07:49;;;;;;;2.00;0.70;;;10.80;49.00;;;;;;2570017;52;20957;-86
2023/02/25 15:11:49;;;;;;;3.67;0.65;;;10.90;48.90;;;;;;2571509;53;20936;-84
2023/02/25 15:14:38;;;;;;;4.37;1.23;;;10.90;48.80;;;;;;2570166;52;20993;-86
2023/02/25 15:17:43;;;;;;;5.28;1.27;;;10.90;48.80;;;;;;2328202;53;20988;-86
2023/02/25 15:21:13;;;;;;;4.03;0.93;;;10.90;48.50;;;;;;2572047;52;20960;-87
2023/02/25 15:23:49;;;;;;;2.20;0.73;;;10.90;48.80;;;;;;2331573;53;20929;-86
2023/02/25 15:26:58;;;;;;;2.92;0.88;;;11.00;48.50;;;;;;2570703;53;21019;-83
2023/02/25 15:30:12;;;;;;;2.72;1.00;;;11.00;48.40;;;;;;2570790;52;20960;-83
2023/02/25 15:34:31;;;;;;;2.85;0.70;;;11.00;48.30;;;;;;2573270;53;21391;-86
2023/02/25 15:37:17;;;;;;;3.22;0.90;;;11.00;48.30;;;;;;2574880;52;21008;-86
2023/02/25 15:39:47;;;;;;;1.67;0.70;;;11.00;48.30;;;;;;2576198;52;22061;-87
2023/02/25 15:42:14;;;;;;;3.25;0.88;;;11.00;48.60;;;;;;2333454;53;22072;-86
2023/02/25 15:44:41;;;;;;;3.35;1.02;;;11.10;48.40;;;;;;2331458;53;20953;-85
2023/02/25 15:47:18;;;;;;;3.58;1.20;;;11.10;48.60;;;;;;2572635;53;20937;-85
2023/02/25 15:49:48;;;;;;;3.60;1.17;;;11.10;48.10;;;;;;2572726;53;21035;-86
2023/02/25 15:52:59;;;;;;;4.15;1.25;;;11.10;48.00;;;;;;2572690;52;22000;-86
2023/02/25 15:55:49;;;;;;;3.92;1.00;;;11.00;47.20;;;;;;2330609;53;20946;-86
2023/02/25 15:59:33;;;;;;;4.55;1.20;;;11.00;47.90;;;;;;2331379;53;20943;-86
2023/02/25 16:02:00;;;;;;;5.25;1.60;;;11.00;47.40;;;;;;2568459;53;20920;-84
2023/02/25 16:04:47;;;;;;;3.58;1.23;;;11.00;48.00;;;;;;2567961;53;22064;-86
2023/02/25 16:07:15;;;;;;;11.52;5.50;;;11.00;47.60;;;;;;2571392;52;20938;-85
2023/02/25 16:09:45;;;;;;;8.40;4.07;;;11.00;48.10;;;;;;2326454;53;21272;-85
2023/02/25 16:12:12;;;;;;;6.60;2.83;;;11.00;48.10;;;;;;2324601;53;20944;-84
2023/02/25 16:14:39;;;;;;;6.62;3.12;;;11.00;48.00;;;;;;2565791;53;21429;-84
2023/02/25 16:17:16;;;;;;;6.78;2.47;;;11.00;48.10;;;;;;2564790;52;22010;-85
2023/02/25 16:19:42;;;;;;;5.97;2.03;;;11.00;47.90;;;;;;2568670;52;20917;-84
2023/02/25 16:22:22;;;;;;;5.07;1.58;;;11.00;47.90;;;;;;2569079;52;20968;-84